createdAt,value
2022-12-05T00:02:01.183Z,65.17
2022-12-05T00:04:29.793Z,65.09
2022-12-05T00:06:58.222Z,65.28
2022-12-05T00:09:27.254Z,65.08
2022-12-05T00:11:57.558Z,65.31
2022-12-05T00:14:26.232Z,65.37
2022-12-05T00:16:54.683Z,64.79
2022-12-05T00:19:23.111Z,64.58
2022-12-05T00:21:51.576Z,64.85
2022-12-05T00:24:20.996Z,64.75
2022-12-05T00:26:49.474Z,64.60
2022-12-05T00:29:17.731Z,64.52
2022-12-05T00:31:46.074Z,64.41
2022-12-05T00:34:14.885Z,64.38
2022-12-05T00:36:43.097Z,64.42
2022-12-05T00:39:14.413Z,64.39
2022-12-05T00:41:44.012Z,64.40
2022-12-05T00:44:14.290Z,64.42
2022-12-05T00:46:42.791Z,64.29
2022-12-05T00:49:12.053Z,64.35
2022-12-05T00:51:42.830Z,64.30
2022-12-05T00:54:15.212Z,64.39
2022-12-05T00:56:44.622Z,64.49
2022-12-05T00:59:19.272Z,64.32
2022-12-05T01:01:49.398Z,64.28
2022-12-05T01:04:20.921Z,64.45
2022-12-05T01:06:50.314Z,64.42
2022-12-05T01:09:20.628Z,64.31
2022-12-05T01:11:51.352Z,64.45
2022-12-05T01:14:22.755Z,64.40
2022-12-05T01:16:53.282Z,64.36
2022-12-05T01:19:27.880Z,64.58
2022-12-05T01:21:56.772Z,64.66
2022-12-05T01:24:26.664Z,64.72
2022-12-05T01:26:55.255Z,64.87
2022-12-05T01:29:24.682Z,64.93
2022-12-05T01:31:53.940Z,64.79
2022-12-05T01:34:22.638Z,64.71
2022-12-05T01:36:51.212Z,64.74
2022-12-05T01:39:19.734Z,64.58
2022-12-05T01:41:50.103Z,64.90
2022-12-05T01:44:18.348Z,64.98
2022-12-05T01:46:49.584Z,64.75
2022-12-05T01:49:24.127Z,64.76
2022-12-05T01:51:56.542Z,64.70
2022-12-05T01:54:25.639Z,64.53
2022-12-05T01:56:58.896Z,64.33
2022-12-05T01:59:33.163Z,64.25
2022-12-05T02:02:02.165Z,64.09
2022-12-05T02:04:32.141Z,64.15
2022-12-05T02:07:00.377Z,64.11
2022-12-05T02:09:28.564Z,63.82
2022-12-05T02:12:00.974Z,63.76
2022-12-05T02:14:42.779Z,64.00
2022-12-05T02:17:37.049Z,63.97
2022-12-05T02:20:18.214Z,64.15
2022-12-05T02:23:10.296Z,63.73
2022-12-05T02:26:17.705Z,63.63
2022-12-05T02:28:52.018Z,63.67
2022-12-05T02:31:45.645Z,63.87
2022-12-05T02:34:27.861Z,63.94
2022-12-05T02:37:03.622Z,63.90
2022-12-05T02:39:43.525Z,64.03
2022-12-05T02:42:24.126Z,63.84
2022-12-05T02:45:10.987Z,63.96
2022-12-05T02:47:45.407Z,63.79
2022-12-05T02:50:19.833Z,63.76
2022-12-05T02:52:50.820Z,64.12
2022-12-05T02:55:20.847Z,64.05
2022-12-05T02:57:56.284Z,64.05
2022-12-05T03:00:24.767Z,64.17
2022-12-05T03:02:58.193Z,63.98
2022-12-05T03:05:57.447Z,63.89
2022-12-05T03:08:32.345Z,63.97
2022-12-05T03:11:02.706Z,64.19
2022-12-05T03:13:44.805Z,64.43
2022-12-05T03:16:18.768Z,64.33
2022-12-05T03:19:01.688Z,64.56
2022-12-05T03:21:29.934Z,64.42
2022-12-05T03:24:06.756Z,64.12
2022-12-05T03:26:58.324Z,64.18
2022-12-05T03:29:35.976Z,64.12
2022-12-05T03:32:10.489Z,64.17
2022-12-05T03:35:06.743Z,64.13
2022-12-05T03:37:56.083Z,64.00
2022-12-05T03:40:53.283Z,64.09
2022-12-05T03:43:23.620Z,64.29
2022-12-05T03:46:07.812Z,64.56
2022-12-05T03:48:45.869Z,64.49
2022-12-05T03:51:16.855Z,64.46
2022-12-05T03:54:09.388Z,64.58
2022-12-05T03:56:47.153Z,64.47
2022-12-05T03:59:33.742Z,64.34
2022-12-05T04:02:11.201Z,64.45
2022-12-05T04:04:58.689Z,64.33
2022-12-05T04:07:32.159Z,64.40
2022-12-05T04:10:06.284Z,64.18
2022-12-05T04:12:36.801Z,63.84
2022-12-05T04:15:14.792Z,63.93
2022-12-05T04:17:56.513Z,63.80
2022-12-05T04:20:51.504Z,63.95
2022-12-05T04:23:20.910Z,64.12
2022-12-05T04:25:56.014Z,64.34
2022-12-05T04:28:39.840Z,64.59
2022-12-05T04:31:14.685Z,64.70
2022-12-05T04:33:48.140Z,64.67
2022-12-05T04:36:25.751Z,64.45
2022-12-05T04:39:01.159Z,64.43
2022-12-05T04:41:34.600Z,64.17
2022-12-05T04:44:08.653Z,64.01
2022-12-05T04:46:40.445Z,63.71
2022-12-05T04:49:14.324Z,63.83
2022-12-05T04:51:45.174Z,63.79
2022-12-05T04:54:30.564Z,63.66
2022-12-05T04:57:12.034Z,63.66
2022-12-05T04:59:40.345Z,63.72
2022-12-05T05:02:11.742Z,63.87
2022-12-05T05:04:48.125Z,64.04
2022-12-05T05:07:17.733Z,64.00
2022-12-05T05:09:46.052Z,64.06
2022-12-05T05:12:19.009Z,64.17
2022-12-05T05:14:48.160Z,64.43
2022-12-05T05:17:16.968Z,64.36
2022-12-05T05:19:45.127Z,64.26
2022-12-05T05:22:13.407Z,64.31
2022-12-05T05:24:41.820Z,64.30
2022-12-05T05:27:10.038Z,64.36
2022-12-05T05:29:38.876Z,64.38
2022-12-05T05:32:07.650Z,64.29
2022-12-05T05:34:36.052Z,64.36
2022-12-05T05:37:04.421Z,64.24
2022-12-05T05:39:32.774Z,64.25
2022-12-05T05:42:01.161Z,64.08
2022-12-05T05:44:29.539Z,64.02
2022-12-05T05:46:57.983Z,64.06
2022-12-05T05:49:26.546Z,64.17
2022-12-05T05:51:55.165Z,64.54
2022-12-05T05:54:23.667Z,64.59
2022-12-05T05:56:51.929Z,64.68
2022-12-05T05:59:20.348Z,64.73
2022-12-05T06:01:48.800Z,64.64
2022-12-05T06:04:17.098Z,64.72
2022-12-05T06:06:45.746Z,64.69
2022-12-05T06:09:14.550Z,64.74
2022-12-05T06:11:42.740Z,64.91
2022-12-05T06:14:11.081Z,64.72
2022-12-05T06:16:39.918Z,64.54
2022-12-05T06:19:10.039Z,64.51
2022-12-05T06:21:38.419Z,64.60
2022-12-05T06:24:07.403Z,64.65
2022-12-05T06:26:35.843Z,64.80
2022-12-05T06:29:04.075Z,64.80
2022-12-05T06:31:34.455Z,64.87
2022-12-05T06:34:04.670Z,64.93
2022-12-05T06:36:32.999Z,65.20
2022-12-05T06:39:01.456Z,65.02
2022-12-05T06:41:29.971Z,64.89
2022-12-05T06:44:02.142Z,64.80
2022-12-05T06:46:30.949Z,64.77
2022-12-05T06:48:59.993Z,64.92
2022-12-05T06:51:28.260Z,64.86
2022-12-05T06:53:57.557Z,64.77
2022-12-05T06:56:26.100Z,64.55
2022-12-05T06:58:55.673Z,64.53
2022-12-05T07:01:44.069Z,64.46
2022-12-05T07:04:23.955Z,64.35
2022-12-05T07:06:55.162Z,64.35
2022-12-05T07:09:45.040Z,64.07
2022-12-05T07:12:15.605Z,63.97
2022-12-05T07:14:48.131Z,63.86
2022-12-05T07:17:19.306Z,63.59
2022-12-05T07:19:49.732Z,63.48
2022-12-05T07:22:19.445Z,63.56
2022-12-05T07:24:48.425Z,63.69
2022-12-05T07:27:20.604Z,63.49
2022-12-05T07:29:52.359Z,63.40
2022-12-05T07:32:21.308Z,63.62
2022-12-05T07:34:54.752Z,63.52
2022-12-05T07:37:24.236Z,63.53
2022-12-05T07:39:53.548Z,63.24
2022-12-05T07:42:21.795Z,63.23
2022-12-05T07:44:50.824Z,63.27
2022-12-05T07:47:19.106Z,63.34
2022-12-05T07:49:47.599Z,63.22
2022-12-05T07:52:16.378Z,63.30
2022-12-05T07:54:44.523Z,63.37
2022-12-05T07:57:13.100Z,63.27
2022-12-05T07:59:41.634Z,63.11
2022-12-05T08:02:09.864Z,63.07
2022-12-05T08:04:38.591Z,63.08
2022-12-05T08:07:11.248Z,63.06
2022-12-05T08:09:39.482Z,62.99
2022-12-05T08:12:08.549Z,63.21
2022-12-05T08:14:37.010Z,63.13
2022-12-05T08:17:05.295Z,62.92
2022-12-05T08:19:33.494Z,63.10
2022-12-05T08:22:02.193Z,63.08
2022-12-05T08:24:30.526Z,62.96
2022-12-05T08:26:58.833Z,62.99
2022-12-05T08:29:27.539Z,62.95
2022-12-05T08:31:55.799Z,62.96
2022-12-05T08:34:23.947Z,63.01
2022-12-05T08:36:52.816Z,62.97
2022-12-05T08:39:21.088Z,62.81
2022-12-05T08:41:49.962Z,62.77
2022-12-05T08:44:19.104Z,62.59
2022-12-05T08:46:49.516Z,62.51
2022-12-05T08:51:56.848Z,60.92
2022-12-05T08:54:25.141Z,62.21
2022-12-05T08:56:53.598Z,64.09
2022-12-05T08:59:22.077Z,64.37
2022-12-05T09:01:51.018Z,64.32
2022-12-05T09:04:19.335Z,64.15
2022-12-05T09:07:08.985Z,64.16
2022-12-05T09:09:37.581Z,63.97
2022-12-05T09:12:05.960Z,63.87
2022-12-05T09:14:34.648Z,63.90
2022-12-05T09:17:03.232Z,63.94
2022-12-05T09:19:32.446Z,63.93
2022-12-05T09:22:00.790Z,63.87
2022-12-05T09:24:29.612Z,64.03
2022-12-05T09:26:58.628Z,63.90
2022-12-05T09:29:30.012Z,63.73
2022-12-05T09:31:59.459Z,63.47
2022-12-05T09:34:28.935Z,63.51
2022-12-05T09:37:10.516Z,63.55
2022-12-05T09:39:47.398Z,63.46
2022-12-05T09:42:38.364Z,63.38
2022-12-05T09:45:24.249Z,63.16
2022-12-05T09:48:07.391Z,63.13
2022-12-05T09:50:57.460Z,63.33
2022-12-05T09:53:31.543Z,63.33
2022-12-05T09:56:09.326Z,63.41
2022-12-05T09:58:45.193Z,63.46
2022-12-05T10:01:17.017Z,63.39
2022-12-05T10:03:59.418Z,63.33
2022-12-05T10:06:40.460Z,63.27
2022-12-05T10:09:26.120Z,63.26
2022-12-05T10:12:01.158Z,63.16
2022-12-05T10:14:51.738Z,63.17
2022-12-05T10:17:26.680Z,63.19
2022-12-05T10:19:59.906Z,63.11
2022-12-05T10:22:49.126Z,63.94
2022-12-05T10:25:21.862Z,63.36
2022-12-05T10:27:58.368Z,63.02
2022-12-05T10:30:31.679Z,62.52
2022-12-05T10:33:08.014Z,62.71
2022-12-05T10:35:40.513Z,62.96
2022-12-05T10:38:26.227Z,62.98
2022-12-05T10:40:58.516Z,62.98
2022-12-05T10:43:28.215Z,62.97
2022-12-05T10:45:57.760Z,63.37
2022-12-05T10:48:27.172Z,62.99
2022-12-05T10:50:57.623Z,62.65
2022-12-05T10:53:42.207Z,62.51
2022-12-05T10:56:35.614Z,62.76
2022-12-05T10:59:05.535Z,62.57
2022-12-05T11:01:36.347Z,62.33
2022-12-05T11:04:20.849Z,62.14
2022-12-05T11:07:23.403Z,62.20
2022-12-05T11:09:52.530Z,62.35
2022-12-05T11:12:26.056Z,62.26
2022-12-05T11:15:05.071Z,62.19
2022-12-05T11:17:38.626Z,62.23
2022-12-05T11:20:27.049Z,62.36
2022-12-05T11:22:59.299Z,62.33
2022-12-05T11:25:34.298Z,62.12
2022-12-05T11:28:18.035Z,61.96
2022-12-05T11:31:01.424Z,62.09
2022-12-05T11:33:35.203Z,61.87
2022-12-05T11:36:05.941Z,61.82
2022-12-05T11:38:35.028Z,61.66
2022-12-05T11:41:31.566Z,61.56
2022-12-05T11:44:06.198Z,61.51
2022-12-05T11:47:00.662Z,61.31
2022-12-05T11:49:39.323Z,61.17
2022-12-05T11:52:29.404Z,61.18
2022-12-05T11:55:05.938Z,61.27
2022-12-05T11:57:52.221Z,61.51
2022-12-05T12:00:45.296Z,61.82
2022-12-05T12:03:38.877Z,62.14
2022-12-05T12:06:22.731Z,62.29
2022-12-05T12:09:16.261Z,62.70
2022-12-05T12:11:58.020Z,62.80
2022-12-05T12:14:34.123Z,63.01
2022-12-05T12:17:16.615Z,62.91
2022-12-05T12:20:12.777Z,63.15
2022-12-05T12:23:00.482Z,63.72
2022-12-05T12:25:50.987Z,63.92
2022-12-05T12:28:22.453Z,64.12
2022-12-05T12:31:02.730Z,64.37
2022-12-05T12:33:38.005Z,64.61
2022-12-05T12:36:22.904Z,64.77
2022-12-05T12:39:07.935Z,64.58
2022-12-05T12:41:51.245Z,64.81
2022-12-05T12:44:47.456Z,64.90
2022-12-05T12:47:56.446Z,65.00
2022-12-05T12:50:31.286Z,64.91
2022-12-05T12:53:18.699Z,64.85
2022-12-05T12:56:02.611Z,64.64
2022-12-05T12:58:43.212Z,64.52
2022-12-05T13:01:37.533Z,64.51
2022-12-05T13:04:15.814Z,64.43
2022-12-05T13:06:52.886Z,64.41
2022-12-05T13:09:32.669Z,64.41
2022-12-05T13:12:11.646Z,64.41
2022-12-05T13:14:53.656Z,64.35
2022-12-05T13:17:23.592Z,64.50
2022-12-05T13:19:53.932Z,64.41
2022-12-05T13:22:24.658Z,64.64
2022-12-05T13:24:54.724Z,64.67
2022-12-05T13:27:28.133Z,64.87
2022-12-05T13:29:59.914Z,65.01
2022-12-05T13:32:41.383Z,65.36
2022-12-05T13:35:39.338Z,65.64
2022-12-05T13:38:39.973Z,65.75
2022-12-05T13:41:27.612Z,65.71
2022-12-05T13:44:06.214Z,65.76
2022-12-05T13:46:39.420Z,65.70
2022-12-05T13:49:49.777Z,65.77
2022-12-05T13:52:23.769Z,65.74
2022-12-05T13:54:56.876Z,65.75
2022-12-05T13:57:53.031Z,65.68
2022-12-05T14:00:37.387Z,65.82
2022-12-05T14:03:16.022Z,66.16
2022-12-05T14:05:53.606Z,66.35
2022-12-05T14:08:32.558Z,66.14
2022-12-05T14:11:01.818Z,65.84
2022-12-05T14:13:31.396Z,65.93
2022-12-05T14:16:26.426Z,65.65
2022-12-05T14:18:55.060Z,65.31
2022-12-05T14:21:45.196Z,65.47
2022-12-05T14:24:16.844Z,65.38
2022-12-05T14:26:55.801Z,65.38
2022-12-05T14:29:33.379Z,65.18
2022-12-05T14:32:28.485Z,65.13
2022-12-05T14:35:02.006Z,65.35
2022-12-05T14:37:34.935Z,65.24
2022-12-05T14:40:16.997Z,65.03
2022-12-05T14:43:28.154Z,64.95
2022-12-05T14:46:15.082Z,64.90
2022-12-05T14:48:48.612Z,64.99
2022-12-05T14:51:32.677Z,65.09
2022-12-05T14:54:06.878Z,65.07
2022-12-05T14:56:42.492Z,64.97
2022-12-05T14:59:26.636Z,64.74
2022-12-05T15:01:58.409Z,64.97
2022-12-05T15:04:42.149Z,65.24
2022-12-05T15:07:20.083Z,65.26
2022-12-05T15:10:02.006Z,65.17
2022-12-05T15:12:40.686Z,64.85
2022-12-05T15:15:36.671Z,64.86
2022-12-05T15:18:27.333Z,64.58
2022-12-05T15:21:11.189Z,64.54
2022-12-05T15:23:42.884Z,64.47
2022-12-05T15:26:49.385Z,64.60
2022-12-05T15:29:28.334Z,64.37
2022-12-05T15:31:59.342Z,64.44
2022-12-05T15:34:47.681Z,64.58
2022-12-05T15:38:00.730Z,64.62
2022-12-05T15:40:37.657Z,64.74
2022-12-05T15:43:41.867Z,64.44
2022-12-05T15:46:27.757Z,64.33
2022-12-05T15:48:58.411Z,64.14
2022-12-05T15:51:34.940Z,64.21
2022-12-05T15:54:17.103Z,64.08
2022-12-05T15:57:00.685Z,64.09
2022-12-05T15:59:36.292Z,64.09
2022-12-05T16:02:14.283Z,64.13
2022-12-05T16:04:50.606Z,64.23
2022-12-05T16:07:20.386Z,64.34
2022-12-05T16:09:48.919Z,64.37
2022-12-05T16:12:24.940Z,64.55
2022-12-05T16:15:01.474Z,64.77
2022-12-05T16:17:42.491Z,64.74
2022-12-05T16:20:20.411Z,64.67
2022-12-05T16:22:50.813Z,64.90
2022-12-05T16:25:36.123Z,64.85
2022-12-05T16:28:17.078Z,64.83
2022-12-05T16:30:58.340Z,65.11
2022-12-05T16:33:28.791Z,64.91
2022-12-05T16:36:11.468Z,64.69
2022-12-05T16:38:45.293Z,64.69
2022-12-05T16:41:16.333Z,64.89
2022-12-05T16:43:46.468Z,65.19
2022-12-05T16:46:14.753Z,64.90
2022-12-05T16:48:45.237Z,64.88
2022-12-05T16:51:13.960Z,64.81
2022-12-05T16:53:46.370Z,64.90
2022-12-05T16:56:18.993Z,65.08
2022-12-05T16:58:47.522Z,64.95
2022-12-05T17:01:24.909Z,64.73
2022-12-05T17:03:55.177Z,64.91
2022-12-05T17:06:25.080Z,64.88
2022-12-05T17:08:54.640Z,64.78
2022-12-05T17:11:27.087Z,64.88
2022-12-05T17:13:57.724Z,64.71
2022-12-05T17:16:26.940Z,64.71
2022-12-05T17:18:55.785Z,64.68
2022-12-05T17:21:32.813Z,64.49
2022-12-05T17:24:01.609Z,64.84
2022-12-05T17:26:29.978Z,64.53
2022-12-05T17:28:58.334Z,64.51
2022-12-05T17:31:27.240Z,64.50
2022-12-05T17:33:55.583Z,64.52
2022-12-05T17:36:24.295Z,64.51
2022-12-05T17:38:52.975Z,64.39
2022-12-05T17:41:24.263Z,64.32
2022-12-05T17:43:52.903Z,64.27
2022-12-05T17:46:23.470Z,64.37
2022-12-05T17:48:52.329Z,64.76
2022-12-05T17:51:21.069Z,64.66
2022-12-05T17:53:49.758Z,64.56
2022-12-05T17:56:17.932Z,64.48
2022-12-05T17:58:47.049Z,64.24
2022-12-05T18:01:19.502Z,64.12
2022-12-05T18:03:48.855Z,63.82
2022-12-05T18:06:17.941Z,63.70
2022-12-05T18:08:46.286Z,63.52
2022-12-05T18:11:16.147Z,63.44
2022-12-05T18:13:44.412Z,63.64
2022-12-05T18:16:13.379Z,63.66
2022-12-05T18:18:41.764Z,63.75
2022-12-05T18:21:12.623Z,63.93
2022-12-05T18:23:41.611Z,63.95
2022-12-05T18:26:10.892Z,64.03
2022-12-05T18:28:40.335Z,64.12
2022-12-05T18:31:17.084Z,64.22
2022-12-05T18:33:46.293Z,64.28
2022-12-05T18:36:17.621Z,64.25
2022-12-05T18:38:54.914Z,64.15
2022-12-05T18:41:25.205Z,64.07
2022-12-05T18:43:54.023Z,64.21
2022-12-05T18:46:22.668Z,64.44
2022-12-05T18:48:51.137Z,64.48
2022-12-05T18:51:22.534Z,64.61
2022-12-05T18:53:53.541Z,64.57
2022-12-05T18:56:31.067Z,64.75
2022-12-05T18:59:03.564Z,64.92
2022-12-05T19:01:37.509Z,64.89
2022-12-05T19:04:07.765Z,64.78
2022-12-05T19:06:36.965Z,64.92
2022-12-05T19:09:12.737Z,64.93
2022-12-05T19:11:47.358Z,64.98
2022-12-05T19:14:19.142Z,64.89
2022-12-05T19:16:58.295Z,65.05
2022-12-05T19:19:29.478Z,65.24
2022-12-05T19:21:59.316Z,65.18
2022-12-05T19:24:27.458Z,65.03
2022-12-05T19:26:56.016Z,64.93
2022-12-05T19:29:24.863Z,64.80
2022-12-05T19:31:53.472Z,64.64
2022-12-05T19:34:22.723Z,64.60
2022-12-05T19:36:51.269Z,64.46
2022-12-05T19:39:23.433Z,64.41
2022-12-05T19:41:52.669Z,64.27
2022-12-05T19:44:22.213Z,64.04
2022-12-05T19:46:50.667Z,64.05
2022-12-05T19:49:19.748Z,64.09
2022-12-05T19:51:48.709Z,64.09
2022-12-05T19:54:22.174Z,63.99
2022-12-05T19:56:52.076Z,63.85
2022-12-05T19:59:21.299Z,63.77
2022-12-05T20:01:49.581Z,63.52
2022-12-05T20:04:18.327Z,63.37
2022-12-05T20:06:48.747Z,63.34
2022-12-05T20:09:20.868Z,63.13
2022-12-05T20:11:55.125Z,63.03
2022-12-05T20:14:25.980Z,63.34
2022-12-05T20:16:54.758Z,63.05
2022-12-05T20:19:23.704Z,62.88
2022-12-05T20:21:52.223Z,62.65
2022-12-05T20:24:20.547Z,62.64
2022-12-05T20:26:48.941Z,62.48
2022-12-05T20:29:17.967Z,62.44
2022-12-05T20:31:46.471Z,62.33
2022-12-05T20:34:15.633Z,62.20
2022-12-05T20:36:44.249Z,62.14
2022-12-05T20:39:15.341Z,62.24
2022-12-05T20:41:44.524Z,62.46
2022-12-05T20:44:15.759Z,62.38
2022-12-05T20:46:44.418Z,62.33
2022-12-05T20:49:13.754Z,62.50
2022-12-05T20:51:44.471Z,62.42
2022-12-05T20:54:16.723Z,62.28
2022-12-05T20:56:46.000Z,62.22
2022-12-05T20:59:14.861Z,62.37
2022-12-05T21:01:43.311Z,62.21
2022-12-05T21:04:13.303Z,62.26
2022-12-05T21:06:43.787Z,62.15
2022-12-05T21:09:16.295Z,62.11
2022-12-05T21:11:45.635Z,62.08
2022-12-05T21:14:14.211Z,62.03
2022-12-05T22:05:15.182Z,61.98
2022-12-05T22:07:43.700Z,62.35
2022-12-05T22:10:12.633Z,62.18
2022-12-05T22:12:41.597Z,61.97
2022-12-05T22:15:10.649Z,61.92
2022-12-05T22:17:39.001Z,61.85
2022-12-05T22:20:08.062Z,61.73
2022-12-05T22:22:36.583Z,61.38
2022-12-05T22:25:05.147Z,61.24
2022-12-05T22:27:33.863Z,61.11
2022-12-05T22:30:02.745Z,61.09
2022-12-05T22:32:31.074Z,61.02
2022-12-05T22:35:03.742Z,61.07
2022-12-05T22:37:33.111Z,61.05
2022-12-05T22:40:02.243Z,60.79
2022-12-05T22:42:30.827Z,60.83
2022-12-05T22:44:59.404Z,61.07
2022-12-05T22:47:27.914Z,60.96
2022-12-05T22:49:56.193Z,60.81
2022-12-05T22:52:25.462Z,60.82
2022-12-05T22:54:53.951Z,60.70
2022-12-05T22:57:22.083Z,60.58
2022-12-05T22:59:50.632Z,60.63
2022-12-05T23:02:25.678Z,60.73
2022-12-05T23:05:13.523Z,60.91
2022-12-05T23:07:59.452Z,60.60
2022-12-05T23:10:28.595Z,60.44
2022-12-05T23:12:56.717Z,60.74
2022-12-05T23:15:24.938Z,61.02
2022-12-05T23:17:55.571Z,61.17
2022-12-05T23:20:24.058Z,60.89
2022-12-05T23:22:52.371Z,60.89
2022-12-05T23:25:21.120Z,61.08
2022-12-05T23:27:49.421Z,61.36
2022-12-05T23:30:17.556Z,61.47
2022-12-05T23:32:46.000Z,61.28
2022-12-05T23:35:14.311Z,61.49
2022-12-05T23:37:42.790Z,61.72
2022-12-05T23:40:11.590Z,61.84
2022-12-05T23:42:39.709Z,61.64
2022-12-05T23:45:08.075Z,61.45
2022-12-05T23:47:36.930Z,61.19
2022-12-05T23:50:05.834Z,61.11
2022-12-05T23:52:36.144Z,61.36
2022-12-05T23:55:05.776Z,61.27
2022-12-05T23:57:33.908Z,61.36
